Time;durP1;ratioP1;P1;durP2;ratioP2;P2;SDS_P1;SDS_P2;PMS_P1;PMS_P2;Temp;Humidity;BMP_temperature;BMP_pressure;BME280_temperature;BME280_humidity;BME280_pressure;Samples;Min_cycle;Max_cycle;Signal;HPM_P1;HPM_P2
2022/11/09 00:00:40;;;;;;;3.90;2.22;;;;;;;11.91;76.42;98113.75;5000098;28;20047;-82
2022/11/09 00:03:06;;;;;;;4.05;2.33;;;;;;;12.01;76.54;98117.16;5021057;28;20068;-81
2022/11/09 00:05:32;;;;;;;7.50;2.20;;;;;;;11.92;76.39;98110.00;5003082;28;20045;-82
2022/11/09 00:07:58;;;;;;;3.08;2.03;;;;;;;11.93;76.60;98098.22;5005007;28;20029;-81
2022/11/09 00:10:23;;;;;;;3.08;2.05;;;;;;;11.97;76.32;98113.44;5003776;28;20026;-81
2022/11/09 00:12:48;;;;;;;2.60;2.20;;;;;;;11.92;76.52;98113.50;4990656;28;20044;-82
2022/11/09 00:15:14;;;;;;;3.67;2.35;;;;;;;11.89;76.42;98102.53;4990848;28;20034;-82
2022/11/09 00:17:39;;;;;;;3.63;2.25;;;;;;;11.97;76.63;98118.78;4986540;28;20033;-82
2022/11/09 00:20:05;;;;;;;3.35;2.33;;;;;;;11.93;76.50;98109.72;5000963;28;20029;-82
2022/11/09 00:22:30;;;;;;;4.32;2.33;;;;;;;11.91;76.62;98100.38;4968817;28;20708;-82
2022/11/09 00:24:56;;;;;;;3.42;2.17;;;;;;;12.03;76.22;98109.66;5016905;28;20090;-82
2022/11/09 00:27:21;;;;;;;5.03;2.33;;;;;;;11.92;76.67;98104.66;4967242;28;20440;-82
2022/11/09 00:29:46;;;;;;;3.40;2.45;;;;;;;11.81;76.14;98073.69;5006193;28;20112;-82
2022/11/09 00:32:12;;;;;;;3.08;1.90;;;;;;;12.02;75.93;98101.94;5000911;28;20034;-82
2022/11/09 00:34:37;;;;;;;3.95;2.10;;;;;;;11.95;76.27;98091.53;5002740;28;20048;-82
2022/11/09 00:37:02;;;;;;;2.72;2.38;;;;;;;11.98;76.04;98100.88;4987199;28;20038;-82
2022/11/09 00:39:28;;;;;;;2.42;2.08;;;;;;;12.01;76.04;98105.69;4972492;28;20044;-82
2022/11/09 00:41:54;;;;;;;3.75;2.28;;;;;;;11.94;75.73;98097.16;4985884;28;20029;-82
2022/11/09 00:44:19;;;;;;;2.95;2.63;;;;;;;11.97;76.19;98100.06;5003685;28;20045;-82
2022/11/09 00:46:44;;;;;;;5.25;2.50;;;;;;;11.82;76.25;98092.13;5021896;28;20040;-82
2022/11/09 00:49:10;;;;;;;3.47;2.45;;;;;;;11.89;76.04;98105.19;5004422;28;20037;-82
2022/11/09 00:51:35;;;;;;;2.10;2.00;;;;;;;11.82;76.07;98104.69;5005883;28;20128;-82
2022/11/09 00:54:00;;;;;;;2.38;2.17;;;;;;;11.72;76.30;98105.56;5025037;28;20029;-82
2022/11/09 00:56:26;;;;;;;3.75;2.45;;;;;;;11.54;76.80;98090.09;5024561;28;20501;-82
2022/11/09 00:58:54;;;;;;;3.50;2.10;;;;;;;11.82;76.34;98116.19;5026273;28;20037;-82
2022/11/09 01:01:20;;;;;;;4.20;2.40;;;;;;;11.53;76.86;98087.69;5002505;28;20493;-82
2022/11/09 01:03:47;;;;;;;3.20;2.00;;;;;;;11.47;77.27;98112.81;5022140;28;20025;-82
2022/11/09 01:06:19;;;;;;;3.25;2.33;;;;;;;11.21;77.62;98099.53;5028785;28;20084;-82
2022/11/09 01:08:45;;;;;;;5.18;2.15;;;;;;;11.10;78.34;98105.97;5025028;28;20128;-82
2022/11/09 01:11:11;;;;;;;3.35;2.28;;;;;;;11.07;78.17;98109.16;5008715;28;20043;-82
2022/11/09 01:13:37;;;;;;;3.15;2.35;;;;;;;11.02;79.38;98122.53;5027640;28;20112;-81
2022/11/09 01:16:09;;;;;;;4.53;2.70;;;;;;;10.81;79.29;98109.47;5026970;28;20040;-82
2022/11/09 01:18:34;;;;;;;3.17;2.35;;;;;;;10.98;79.23;98123.34;4990259;28;20026;-81
2022/11/09 01:21:01;;;;;;;3.42;2.78;;;;;;;11.04;79.13;98132.94;5006467;28;20613;-81
2022/11/09 01:23:27;;;;;;;2.28;1.95;;;;;;;11.17;77.91;98119.03;5027543;28;20033;-82
2022/11/09 01:26:01;;;;;;;2.58;1.85;;;;;;;11.30;77.87;98126.50;5005387;28;20041;-81
2022/11/09 01:28:26;;;;;;;2.70;2.40;;;;;;;11.07;78.72;98116.38;5022662;28;20036;-82
2022/11/09 01:30:52;;;;;;;5.18;2.30;;;;;;;10.89;78.87;98104.38;5022750;28;20030;-82
2022/11/09 01:33:18;;;;;;;12.57;3.15;;;;;;;11.00;78.21;98123.88;5021629;28;20034;-83
2022/11/09 01:35:43;;;;;;;4.20;2.58;;;;;;;10.92;78.29;98111.84;5026421;28;20025;-82
2022/11/09 01:38:10;;;;;;;4.50;2.63;;;;;;;11.17;78.10;98130.53;5022092;28;20017;-82
2022/11/09 01:40:37;;;;;;;3.67;2.13;;;;;;;11.26;77.65;98142.25;5007486;28;20467;-82
2022/11/09 01:43:23;;;;;;;4.28;2.53;;;;;;;11.04;78.27;98147.09;5022194;28;20424;-82
2022/11/09 01:45:57;;;;;;;3.35;2.75;;;;;;;10.88;78.95;98145.50;5006470;28;20528;-83
2022/11/09 01:48:33;;;;;;;4.03;2.30;;;;;;;10.99;77.88;98138.28;5025004;28;20021;-83
2022/11/09 01:51:05;;;;;;;5.18;3.05;;;;;;;10.92;78.86;98154.56;5029517;28;20037;-83
2022/11/09 01:53:36;;;;;;;3.92;2.70;;;;;;;10.95;78.39;98147.88;5027718;28;20045;-83
2022/11/09 01:56:05;;;;;;;4.10;2.10;;;;;;;11.14;78.37;98148.94;5026593;28;20029;-83
2022/11/09 01:58:44;;;;;;;2.80;2.50;;;;;;;11.08;78.13;98144.69;5010845;28;20029;-82
2022/11/09 02:01:11;;;;;;;2.85;2.30;;;;;;;11.12;77.90;98154.56;5030031;28;20388;-83
2022/11/09 02:03:41;;;;;;;3.88;2.92;;;;;;;11.46;76.98;98149.44;5021949;28;20037;-83
2022/11/09 02:06:11;;;;;;;2.75;2.20;;;;;;;11.00;76.84;98078.47;5019712;28;21258;-83
2022/11/09 02:08:37;;;;;;;4.05;2.55;;;;;;;11.11;78.40;98146.81;5027441;28;20112;-82
2022/11/09 02:11:10;;;;;;;3.70;2.78;;;;;;;11.29;77.55;98138.25;5005889;28;20095;-83
2022/11/09 02:13:42;;;;;;;4.13;2.88;;;;;;;11.29;77.45;98140.94;5028201;28;20112;-83
2022/11/09 02:16:10;;;;;;;4.15;1.90;;;;;;;11.26;77.24;98110.22;5013701;28;20021;-82
2022/11/09 02:18:40;;;;;;;3.05;2.28;;;;;;;11.45;77.09;98149.69;5029197;28;20030;-82
2022/11/09 02:21:05;;;;;;;3.13;2.38;;;;;;;11.58;76.65;98143.78;5011393;28;20049;-82
2022/11/09 02:23:31;;;;;;;4.85;2.33;;;;;;;11.39;76.81;98148.09;5006983;28;20079;-82
2022/11/09 02:26:02;;;;;;;3.15;2.20;;;;;;;11.31;76.97;98136.88;5009339;28;20095;-82
2022/11/09 02:28:30;;;;;;;3.67;2.90;;;;;;;11.20;78.31;98129.97;5011009;28;20095;-83
2022/11/09 02:30:56;;;;;;;7.28;2.65;;;;;;;11.52;77.03;98159.03;5025904;28;20970;-82
2022/11/09 02:33:22;;;;;;;2.50;2.13;;;;;;;11.27;77.95;98159.88;5030226;28;20034;-83
2022/11/09 02:35:47;;;;;;;5.40;2.50;;;;;;;11.31;78.30;98160.94;5027023;28;20099;-82
2022/11/09 02:38:13;;;;;;;3.40;2.40;;;;;;;11.24;78.63;98164.97;5009269;28;20478;-82
2022/11/09 02:40:45;;;;;;;4.82;3.10;;;;;;;11.22;79.08;98156.44;5025433;28;20026;-83
2022/11/09 02:43:13;;;;;;;3.33;2.65;;;;;;;11.32;78.23;98164.41;5027905;28;20438;-82
2022/11/09 02:45:39;;;;;;;5.28;2.55;;;;;;;11.18;78.87;98142.78;5008396;28;20096;-83
2022/11/09 02:48:04;;;;;;;3.42;2.47;;;;;;;11.21;80.05;98154.81;5024981;28;20029;-82
2022/11/09 02:50:30;;;;;;;3.58;2.58;;;;;;;11.20;79.50;98137.19;4993742;28;20025;-82
2022/11/09 02:52:55;;;;;;;9.18;4.63;;;;;;;11.19;80.25;98147.06;4977733;28;20091;-82
2022/11/09 02:55:20;;;;;;;4.32;2.45;;;;;;;11.22;81.90;98153.75;4987832;28;20033;-82
2022/11/09 02:57:46;;;;;;;3.45;2.00;;;;;;;11.23;79.65;98137.44;5025219;28;21771;-82
2022/11/09 03:00:12;;;;;;;3.55;2.72;;;;;;;11.15;80.78;98132.66;5010098;28;20068;-82
2022/11/09 03:02:37;;;;;;;5.28;2.25;;;;;;;11.22;80.94;98146.56;5007260;28;20033;-81
2022/11/09 03:05:03;;;;;;;3.47;2.47;;;;;;;11.27;81.59;98145.72;5024868;28;20035;-81
2022/11/09 03:07:28;;;;;;;4.75;2.70;;;;;;;11.22;82.81;98151.09;5023217;28;20132;-82
2022/11/09 03:09:54;;;;;;;7.18;2.75;;;;;;;11.15;83.54;98143.34;5007516;28;20179;-81
2022/11/09 03:12:29;;;;;;;5.00;2.45;;;;;;;11.00;82.98;98107.84;5023746;28;20033;-82
2022/11/09 03:14:59;;;;;;;4.00;2.80;;;;;;;11.26;83.03;98136.13;5005049;28;20036;-81
2022/11/09 03:17:25;;;;;;;5.38;3.08;;;;;;;11.20;84.26;98123.84;5001609;28;20025;-82
2022/11/09 03:19:50;;;;;;;6.72;2.90;;;;;;;11.28;83.42;98128.63;5007093;28;20065;-81
2022/11/09 03:22:16;;;;;;;3.58;2.67;;;;;;;11.33;83.47;98132.06;5018784;28;20064;-81
2022/11/09 03:24:41;;;;;;;5.78;2.78;;;;;;;11.38;83.75;98128.59;5000361;28;20045;-81
2022/11/09 03:27:07;;;;;;;4.35;2.70;;;;;;;11.26;84.68;98134.25;5017520;28;20061;-82
2022/11/09 03:29:32;;;;;;;3.72;2.42;;;;;;;11.24;84.78;98130.25;5017349;28;20033;-81
2022/11/09 03:31:58;;;;;;;5.13;2.38;;;;;;;11.36;83.68;98144.09;4997003;28;20040;-81
2022/11/09 03:34:23;;;;;;;2.67;2.35;;;;;;;11.34;83.47;98127.53;5018439;28;20034;-82
2022/11/09 03:36:49;;;;;;;3.38;2.60;;;;;;;11.27;84.41;98135.84;5017649;28;20651;-81
2022/11/09 03:39:14;;;;;;;5.15;2.58;;;;;;;11.11;84.41;98120.13;5001264;28;20087;-81
2022/11/09 03:41:40;;;;;;;7.45;2.33;;;;;;;11.19;85.13;98119.56;4988741;28;20481;-82
2022/11/09 03:44:05;;;;;;;5.00;2.60;;;;;;;11.22;84.71;98129.72;5021636;28;20045;-82
2022/11/09 03:46:30;;;;;;;6.03;3.20;;;;;;;11.29;84.70;98123.00;5020529;28;20034;-82
2022/11/09 03:48:56;;;;;;;4.45;2.30;;;;;;;11.54;83.18;98140.84;5003912;28;20514;-82
2022/11/09 03:51:21;;;;;;;3.22;2.67;;;;;;;11.49;83.10;98148.88;5025599;28;20040;-81
2022/11/09 03:53:47;;;;;;;2.75;2.45;;;;;;;11.21;85.65;98122.75;5021790;28;20037;-82
2022/11/09 03:56:12;;;;;;;2.47;2.28;;;;;;;11.36;83.50;98129.97;4993259;28;20061;-83
2022/11/09 03:58:37;;;;;;;4.07;2.90;;;;;;;11.31;83.96;98126.22;4988779;28;20026;-83
2022/11/09 04:01:03;;;;;;;5.47;3.30;;;;;;;11.31;85.83;98133.44;5006901;28;20136;-82
2022/11/09 04:03:28;;;;;;;4.03;2.78;;;;;;;11.29;83.37;98108.88;4986978;28;20064;-82
2022/11/09 04:05:53;;;;;;;5.43;3.47;;;;;;;11.39;83.14;98111.50;5007337;28;20038;-82
2022/11/09 04:08:19;;;;;;;3.17;2.50;;;;;;;11.49;82.54;98102.69;4977856;28;20026;-83
2022/11/09 04:10:44;;;;;;;3.58;2.45;;;;;;;11.11;87.87;98075.53;5007602;28;20498;-82
2022/11/09 04:13:10;;;;;;;4.05;2.83;;;;;;;11.15;86.73;98062.41;4974586;28;20033;-83
2022/11/09 04:15:35;;;;;;;5.25;2.50;;;;;;;11.15;84.05;98057.88;5027912;28;20026;-82
2022/11/09 04:18:01;;;;;;;4.68;2.75;;;;;;;11.24;84.52;98077.63;4985695;28;20022;-82
2022/11/09 04:20:29;;;;;;;5.85;2.97;;;;;;;11.27;85.39;98084.28;4996245;28;20038;-82
2022/11/09 04:22:56;;;;;;;3.40;2.58;;;;;;;11.20;85.81;98091.78;5020307;28;20025;-82
2022/11/09 04:25:24;;;;;;;3.13;2.47;;;;;;;11.15;83.70;98075.78;5019697;28;20481;-83
2022/11/09 04:27:53;;;;;;;4.25;2.90;;;;;;;11.24;82.50;98082.97;5021706;28;20022;-83
2022/11/09 04:30:18;;;;;;;3.38;2.15;;;;;;;11.52;81.68;98088.75;5001677;28;20036;-82
2022/11/09 04:32:44;;;;;;;3.22;2.20;;;;;;;11.43;81.78;98101.88;5019449;28;20026;-83
2022/11/09 04:35:09;;;;;;;6.53;3.78;;;;;;;10.99;86.74;98091.00;4987254;28;20040;-82
2022/11/09 04:37:34;;;;;;;3.97;2.53;;;;;;;11.06;85.92;98101.41;4982083;28;20041;-82
2022/11/09 04:40:00;;;;;;;5.03;2.47;;;;;;;11.11;85.55;98120.91;4998818;28;20021;-82
2022/11/09 04:42:25;;;;;;;2.75;2.15;;;;;;;11.31;83.22;98109.41;5020223;28;20036;-83
2022/11/09 04:44:50;;;;;;;3.13;2.50;;;;;;;11.39;81.93;98116.03;4970868;28;20585;-82
2022/11/09 04:47:16;;;;;;;2.90;2.25;;;;;;;11.06;83.75;98110.25;5015933;28;20049;-82
2022/11/09 04:49:41;;;;;;;3.33;2.10;;;;;;;11.13;83.53;98101.94;5005497;28;20043;-83
2022/11/09 04:52:07;;;;;;;2.83;2.00;;;;;;;11.25;82.63;98124.63;4990687;28;20063;-83
2022/11/09 04:54:32;;;;;;;3.42;2.35;;;;;;;11.28;82.71;98126.75;4989347;28;20041;-83
2022/11/09 04:56:58;;;;;;;2.78;1.80;;;;;;;11.17;83.26;98101.16;4990593;28;20037;-83
2022/11/09 04:59:23;;;;;;;2.47;1.90;;;;;;;11.25;83.04;98121.94;5006896;28;20084;-82
2022/11/09 05:01:49;;;;;;;2.97;2.22;;;;;;;10.98;83.98;98094.78;4984911;28;20596;-83
2022/11/09 05:04:14;;;;;;;2.63;2.35;;;;;;;11.03;84.19;98093.97;5000493;28;20068;-82
2022/11/09 05:06:39;;;;;;;2.90;2.20;;;;;;;11.13;83.31;98112.63;5006872;28;20452;-83
2022/11/09 05:09:06;;;;;;;3.45;1.95;;;;;;;11.21;82.94;98112.88;4991686;28;20117;-82
2022/11/09 05:11:33;;;;;;;3.00;1.88;;;;;;;11.10;83.59;98115.84;5025547;28;20037;-83
2022/11/09 05:13:59;;;;;;;2.90;2.08;;;;;;;11.14;82.29;98109.69;5003441;28;20030;-82
2022/11/09 05:16:24;;;;;;;4.63;1.95;;;;;;;11.22;82.13;98105.69;4983251;28;20048;-83
2022/11/09 05:18:51;;;;;;;3.78;2.30;;;;;;;11.06;84.33;98133.47;5021061;28;20033;-83
2022/11/09 05:21:16;;;;;;;3.60;2.85;;;;;;;11.12;83.75;98129.72;5007072;28;20147;-83
2022/11/09 05:24:01;;;;;;;2.60;1.33;;;;;;;11.27;82.17;98124.34;5020867;28;20437;-83
2022/11/09 05:26:34;;;;;;;3.50;1.95;;;;;;;11.27;82.37;98129.69;5021561;28;20041;-83
2022/11/09 05:29:02;;;;;;;2.88;1.67;;;;;;;11.22;82.77;98135.06;5022696;28;20073;-83
2022/11/09 05:31:29;;;;;;;1.83;1.73;;;;;;;11.14;84.58;98144.41;5004929;28;20155;-82
2022/11/09 05:33:55;;;;;;;2.20;1.73;;;;;;;11.07;82.75;98124.41;5015318;28;20037;-83
2022/11/09 05:36:21;;;;;;;2.45;1.90;;;;;;;11.07;83.63;98146.53;4981096;28;20041;-83
2022/11/09 05:38:46;;;;;;;2.63;1.73;;;;;;;11.05;84.20;98129.97;5024199;28;20112;-85
2022/11/09 05:41:12;;;;;;;2.30;2.10;;;;;;;11.08;84.53;98129.47;5028995;28;20646;-84
2022/11/09 05:43:38;;;;;;;1.90;1.80;;;;;;;10.99;85.65;98112.38;5030706;28;20037;-84
2022/11/09 05:46:03;;;;;;;2.92;1.40;;;;;;;11.16;86.00;98139.59;4994148;28;20029;-83
2022/11/09 05:48:29;;;;;;;2.13;1.90;;;;;;;11.13;84.99;98128.66;5008390;28;20175;-84
2022/11/09 05:50:54;;;;;;;3.20;2.08;;;;;;;11.18;85.98;98147.34;5013847;28;20033;-84
2022/11/09 05:53:20;;;;;;;5.28;2.03;;;;;;;11.14;86.16;98152.41;4995966;28;20489;-84
2022/11/09 05:55:45;;;;;;;3.17;2.08;;;;;;;11.18;86.37;98144.69;5032280;28;20022;-84
2022/11/09 05:58:11;;;;;;;2.63;1.80;;;;;;;11.26;86.33;98155.63;5016131;28;20101;-84
2022/11/09 06:00:36;;;;;;;1.63;1.52;;;;;;;11.17;86.45;98154.56;5030718;28;20069;-84
2022/11/09 06:03:07;;;;;;;2.00;1.63;;;;;;;11.24;86.56;98159.63;5032418;28;20029;-84
2022/11/09 06:05:34;;;;;;;1.95;1.77;;;;;;;11.27;86.38;98151.06;5030730;28;20036;-84
2022/11/09 06:08:04;;;;;;;2.60;1.83;;;;;;;11.21;86.63;98152.94;5017130;28;20037;-84
2022/11/09 06:10:30;;;;;;;4.38;2.60;;;;;;;11.17;87.27;98154.56;5033643;28;20025;-83
2022/11/09 06:12:56;;;;;;;1.65;1.38;;;;;;;11.17;87.41;98156.44;5027596;28;20042;-84
2022/11/09 06:15:21;;;;;;;2.38;1.92;;;;;;;11.19;87.40;98151.63;5019413;28;20048;-83
2022/11/09 06:17:54;;;;;;;1.58;1.45;;;;;;;11.16;87.38;98160.97;5013748;28;20053;-84
2022/11/09 06:20:21;;;;;;;1.80;1.70;;;;;;;11.18;87.66;98147.34;5029703;28;20489;-84
2022/11/09 06:22:53;;;;;;;1.90;1.73;;;;;;;10.75;87.00;98070.47;5029209;28;20527;-84
2022/11/09 06:25:18;;;;;;;2.72;1.70;;;;;;;11.14;87.40;98124.91;5029333;28;20393;-83
2022/11/09 06:27:44;;;;;;;3.47;1.70;;;;;;;11.27;87.09;98132.34;5016433;28;20023;-85
2022/11/09 06:30:10;;;;;;;2.92;2.30;;;;;;;11.21;87.30;98131.59;5028220;28;20025;-84
2022/11/09 06:32:35;;;;;;;3.92;1.90;;;;;;;11.17;87.30;98138.53;5016608;28;20033;-83
2022/11/09 06:35:01;;;;;;;4.45;1.52;;;;;;;11.17;87.32;98113.69;5013011;28;20117;-84
2022/11/09 06:37:26;;;;;;;3.42;2.08;;;;;;;11.19;87.38;98124.91;4998770;28;20044;-84
2022/11/09 06:39:51;;;;;;;2.90;1.70;;;;;;;11.09;87.46;98098.22;5014100;28;20044;-84
2022/11/09 06:42:17;;;;;;;2.47;1.73;;;;;;;11.26;87.15;98128.91;5013702;28;20075;-84
2022/11/09 06:44:42;;;;;;;3.83;1.80;;;;;;;11.13;87.37;98120.66;5010609;28;20041;-84
2022/11/09 06:47:08;;;;;;;4.18;2.10;;;;;;;11.17;87.38;98137.72;5001084;28;20116;-85
2022/11/09 06:49:33;;;;;;;3.53;1.88;;;;;;;11.16;87.81;98128.91;5033439;28;20029;-84
2022/11/09 06:51:58;;;;;;;2.45;1.73;;;;;;;11.27;87.60;98140.38;4997781;28;20529;-84
2022/11/09 06:54:24;;;;;;;3.30;1.45;;;;;;;11.13;87.55;98132.13;5014888;28;20091;-84
2022/11/09 06:56:49;;;;;;;4.68;1.70;;;;;;;11.13;87.65;98129.47;4985617;28;20022;-83
2022/11/09 06:59:14;;;;;;;2.13;1.60;;;;;;;11.31;87.20;98136.88;5035530;28;20024;-84
2022/11/09 07:01:40;;;;;;;2.08;1.75;;;;;;;11.30;87.48;98142.50;5011242;28;20025;-84
2022/11/09 07:04:05;;;;;;;2.50;1.92;;;;;;;11.39;87.32;98145.44;5012355;28;20056;-84
2022/11/09 07:06:30;;;;;;;3.42;1.40;;;;;;;11.09;87.37;98106.22;5011763;28;20041;-84
2022/11/09 07:08:56;;;;;;;1.88;1.40;;;;;;;11.36;87.18;98144.09;5030832;28;20060;-84
2022/11/09 07:11:21;;;;;;;1.50;1.40;;;;;;;11.28;87.24;98142.78;5032612;28;20440;-84
2022/11/09 07:13:48;;;;;;;2.58;1.55;;;;;;;11.40;86.80;98150.50;5027402;28;20033;-83
2022/11/09 07:16:16;;;;;;;1.45;1.33;;;;;;;11.24;86.91;98141.75;4998522;28;20091;-84
2022/11/09 07:18:43;;;;;;;2.08;1.10;;;;;;;11.25;86.68;98124.63;5028338;28;20018;-83
2022/11/09 07:21:09;;;;;;;1.27;1.15;;;;;;;11.26;86.97;98144.13;5013916;28;21001;-84
2022/11/09 07:23:34;;;;;;;1.58;1.40;;;;;;;11.23;86.61;98144.66;5030226;28;20033;-84
2022/11/09 07:26:00;;;;;;;1.17;1.15;;;;;;;11.27;87.15;98159.06;5005665;28;20048;-84
2022/11/09 07:28:25;;;;;;;3.28;2.08;;;;;;;11.24;87.16;98136.41;5011508;28;20064;-84
2022/11/09 07:30:51;;;;;;;1.55;1.23;;;;;;;11.19;86.77;98123.03;5028048;28;20087;-83
2022/11/09 07:33:18;;;;;;;1.30;1.10;;;;;;;11.44;86.82;98161.47;5032903;28;20040;-84
2022/11/09 07:35:45;;;;;;;1.98;1.33;;;;;;;11.36;86.86;98157.47;5009330;28;20024;-84
2022/11/09 07:38:11;;;;;;;3.22;1.05;;;;;;;11.46;87.03;98191.38;4990895;28;20025;-83
2022/11/09 07:40:37;;;;;;;1.27;1.17;;;;;;;11.41;86.58;98162.00;5011084;28;20021;-84
2022/11/09 07:43:04;;;;;;;2.13;1.15;;;;;;;11.52;86.61;98163.56;4998341;28;20045;-83
2022/11/09 07:45:31;;;;;;;1.33;1.23;;;;;;;11.49;86.36;98166.81;5027225;28;20054;-84
2022/11/09 07:47:59;;;;;;;2.67;1.13;;;;;;;11.48;86.51;98154.50;5027036;28;20116;-84
2022/11/09 07:50:26;;;;;;;1.98;1.00;;;;;;;11.62;86.37;98164.34;5029229;28;20033;-85
2022/11/09 07:52:51;;;;;;;1.63;1.13;;;;;;;11.67;85.92;98161.69;5027653;28;20029;-84
2022/11/09 07:55:17;;;;;;;1.83;1.27;;;;;;;11.79;85.70;98162.22;5010903;28;20405;-84
2022/11/09 07:57:43;;;;;;;1.00;0.90;;;;;;;11.77;85.15;98161.66;5012675;28;20928;-85
2022/11/09 08:00:09;;;;;;;1.55;1.10;;;;;;;11.81;84.97;98173.44;5006446;28;20065;-84
2022/11/09 08:02:35;;;;;;;1.10;1.05;;;;;;;11.85;84.80;98174.50;5026713;28;20064;-84
2022/11/09 08:05:00;;;;;;;0.93;0.88;;;;;;;11.93;84.50;98184.59;5010849;28;20061;-84
2022/11/09 08:07:26;;;;;;;1.25;0.90;;;;;;;11.87;84.76;98172.34;5010749;28;20029;-85
2022/11/09 08:09:51;;;;;;;2.47;0.98;;;;;;;11.87;84.43;98177.69;5028694;28;20143;-84
2022/11/09 08:12:16;;;;;;;1.02;0.93;;;;;;;11.96;84.45;98189.44;5014018;28;20040;-83
2022/11/09 08:14:42;;;;;;;1.20;1.10;;;;;;;11.95;84.67;98187.00;5007359;28;20033;-84
2022/11/09 08:17:07;;;;;;;1.60;1.27;;;;;;;11.96;84.46;98192.09;4992105;28;20036;-84
2022/11/09 08:19:33;;;;;;;1.75;1.15;;;;;;;11.89;84.53;98191.59;4998614;28;20116;-84
2022/11/09 08:21:59;;;;;;;1.30;1.20;;;;;;;11.93;84.52;98178.44;5036638;28;20025;-84
2022/11/09 08:24:24;;;;;;;1.45;1.02;;;;;;;11.86;85.02;98176.06;5000470;28;20025;-83
2022/11/09 08:26:49;;;;;;;0.80;0.80;;;;;;;11.86;84.68;98175.28;4996348;28;21616;-84
2022/11/09 08:29:16;;;;;;;1.27;1.02;;;;;;;11.94;85.03;98185.41;5012059;28;20847;-84
2022/11/09 08:31:41;;;;;;;1.30;1.00;;;;;;;11.91;85.02;98178.72;5010475;28;20379;-83
2022/11/09 08:34:13;;;;;;;0.98;0.95;;;;;;;11.85;84.87;98169.13;5027432;28;20067;-83
2022/11/09 08:36:39;;;;;;;1.40;1.30;;;;;;;11.98;84.77;98186.47;5009697;28;21399;-83
2022/11/09 08:39:04;;;;;;;2.58;1.25;;;;;;;12.00;84.68;98165.59;5027746;28;20024;-83
2022/11/09 08:41:30;;;;;;;1.00;0.93;;;;;;;12.05;84.63;98189.66;5003565;28;20030;-83
2022/11/09 08:43:55;;;;;;;0.75;0.75;;;;;;;12.00;84.76;98177.09;5012818;28;20083;-83
2022/11/09 08:46:21;;;;;;;14.70;2.13;;;;;;;11.89;84.98;98166.72;5025753;28;20069;-83
2022/11/09 08:48:46;;;;;;;0.80;0.77;;;;;;;12.06;84.97;98190.47;5014145;28;20082;-84
2022/11/09 08:51:12;;;;;;;2.03;1.00;;;;;;;11.91;85.51;98184.09;5007920;28;20112;-83
2022/11/09 08:53:37;;;;;;;1.08;0.98;;;;;;;12.06;85.04;98190.47;5004742;28;20033;-83
2022/11/09 08:56:06;;;;;;;1.95;1.17;;;;;;;12.03;85.26;98168.50;5017588;28;20052;-84
2022/11/09 08:58:32;;;;;;;1.13;1.00;;;;;;;12.06;85.16;98188.56;4997372;28;20037;-83
2022/11/09 09:00:57;;;;;;;2.00;0.90;;;;;;;12.11;84.92;98190.41;5026989;28;20416;-84
2022/11/09 09:03:23;;;;;;;1.33;1.13;;;;;;;12.02;84.90;98192.88;5011029;28;20034;-83
2022/11/09 09:05:48;;;;;;;1.25;1.05;;;;;;;12.02;85.09;98182.16;5028562;28;20159;-83
2022/11/09 09:08:14;;;;;;;1.30;1.20;;;;;;;11.99;85.59;98193.44;4995501;28;20397;-83
2022/11/09 09:10:41;;;;;;;1.60;1.48;;;;;;;12.11;84.98;98190.41;5011604;28;20109;-83
2022/11/09 09:13:07;;;;;;;1.35;1.00;;;;;;;12.03;84.86;98184.56;5004016;28;20824;-84
2022/11/09 09:15:32;;;;;;;2.33;2.13;;;;;;;11.97;84.79;98185.66;4992927;28;20040;-83
2022/11/09 09:17:59;;;;;;;1.45;1.33;;;;;;;12.01;84.86;98172.56;5008352;28;20022;-83
2022/11/09 09:20:25;;;;;;;2.50;1.42;;;;;;;12.11;84.74;98182.41;5028088;28;20119;-83
2022/11/09 09:22:50;;;;;;;1.17;1.08;;;;;;;12.11;84.65;98171.69;5025750;28;20037;-83
2022/11/09 09:25:16;;;;;;;0.82;0.82;;;;;;;12.10;84.45;98178.91;5031305;28;20083;-83
2022/11/09 09:27:43;;;;;;;3.45;1.10;;;;;;;11.99;84.65;98156.00;4998181;28;20036;-83
2022/11/09 09:30:09;;;;;;;1.85;1.25;;;;;;;12.10;84.26;98178.13;5026996;28;20033;-83
2022/11/09 09:32:34;;;;;;;1.95;1.40;;;;;;;12.27;84.87;98200.00;4997254;28;20042;-83
2022/11/09 09:34:59;;;;;;;2.97;1.48;;;;;;;12.34;84.83;98197.81;5028992;28;20041;-82
2022/11/09 09:37:25;;;;;;;1.73;1.17;;;;;;;12.22;84.57;98195.47;4998162;28;20027;-83
2022/11/09 09:39:50;;;;;;;3.10;1.30;;;;;;;12.18;84.48;98196.28;5014446;28;20032;-83
2022/11/09 09:42:20;;;;;;;6.20;1.50;;;;;;;12.36;84.21;98219.75;5024414;28;20065;-83
2022/11/09 09:44:57;;;;;;;3.55;1.52;;;;;;;12.22;84.11;98216.06;5019063;28;20063;-83
2022/11/09 09:47:32;;;;;;;2.15;1.50;;;;;;;12.26;84.30;98217.91;5027880;28;20061;-83
2022/11/09 09:50:03;;;;;;;3.92;1.40;;;;;;;12.38;84.29;98209.56;5027040;28;20077;-82
2022/11/09 09:52:46;;;;;;;1.77;1.42;;;;;;;12.34;84.18;98211.22;5008356;28;20517;-82
2022/11/09 09:55:29;;;;;;;3.05;2.13;;;;;;;12.42;84.01;98213.31;5030004;28;20029;-83
2022/11/09 09:58:01;;;;;;;2.80;1.50;;;;;;;12.50;83.70;98204.69;5029290;28;20075;-83
2022/11/09 10:00:27;;;;;;;3.20;1.33;;;;;;;12.53;83.93;98212.97;5032192;28;20036;-82
2022/11/09 10:02:53;;;;;;;1.77;1.50;;;;;;;12.66;82.99;98227.63;5013323;28;20025;-82
2022/11/09 10:05:27;;;;;;;2.47;1.73;;;;;;;12.65;82.94;98228.69;5014951;28;20033;-83
2022/11/09 10:08:17;;;;;;;3.83;1.80;;;;;;;12.71;83.14;98222.25;5015403;28;20168;-83
2022/11/09 10:11:23;;;;;;;2.92;1.40;;;;;;;12.73;82.84;98236.94;5030643;28;20022;-82
2022/11/09 10:14:03;;;;;;;1.60;1.50;;;;;;;12.63;82.98;98226.28;5012537;28;20516;-84
2022/11/09 10:16:50;;;;;;;3.92;1.45;;;;;;;12.58;82.70;98229.00;5010283;28;20029;-82
2022/11/09 10:19:27;;;;;;;8.00;1.77;;;;;;;12.55;83.01;98208.16;5025846;28;20018;-83
2022/11/09 10:22:01;;;;;;;3.33;1.80;;;;;;;12.74;82.75;98213.63;5009569;28;20041;-82
2022/11/09 10:24:29;;;;;;;7.43;2.13;;;;;;;12.82;81.96;98216.53;5031867;28;20026;-83
2022/11/09 10:26:57;;;;;;;3.70;1.75;;;;;;;12.70;82.01;98185.81;5031409;28;20025;-83
2022/11/09 10:29:23;;;;;;;3.28;1.63;;;;;;;12.89;81.62;98210.09;5013215;28;20117;-84
2022/11/09 10:32:13;;;;;;;3.33;1.85;;;;;;;12.70;81.65;98181.28;5010305;28;20517;-83
2022/11/09 10:34:44;;;;;;;1.90;1.60;;;;;;;12.69;81.27;98176.19;5018169;28;20052;-83
2022/11/09 10:37:19;;;;;;;1.88;1.67;;;;;;;13.02;80.66;98214.81;5013163;28;20570;-83
2022/11/09 10:40:08;;;;;;;3.72;1.88;;;;;;;13.05;80.44;98215.06;5031651;28;20029;-83
2022/11/09 10:42:34;;;;;;;6.65;1.92;;;;;;;12.92;80.21;98196.13;5027419;28;20535;-82
2022/11/09 10:45:31;;;;;;;5.22;2.00;;;;;;;12.87;80.58;98191.59;5016236;28;20041;-83
2022/11/09 10:47:56;;;;;;;;;;;;;;;12.90;80.78;98204.44;5024056;28;20052;-82
2022/11/09 10:50:29;;;;;;;4.70;2.13;;;;;;;12.86;80.85;98213.31;5032492;28;19925;-83
2022/11/09 10:53:13;;;;;;;2.22;1.80;;;;;;;12.97;80.43;98204.13;5033334;28;20036;-83
2022/11/09 10:55:49;;;;;;;5.57;1.60;;;;;;;12.99;80.52;98192.06;5030328;28;20022;-82
2022/11/09 10:58:30;;;;;;;4.50;1.55;;;;;;;13.15;79.69;98214.22;5022492;28;20022;-82
2022/11/09 11:01:11;;;;;;;4.50;2.05;;;;;;;13.15;80.47;98209.63;5014658;28;20495;-82
2022/11/09 11:03:38;;;;;;;4.22;2.40;;;;;;;12.98;80.11;98211.88;5031680;28;20723;-82
2022/11/09 11:06:13;;;;;;;4.10;2.10;;;;;;;13.05;80.71;98206.22;5034958;28;20508;-82
2022/11/09 11:08:41;;;;;;;4.80;1.70;;;;;;;12.97;80.50;98218.31;5010457;28;20366;-82
2022/11/09 11:11:16;;;;;;;4.55;2.00;;;;;;;12.89;80.76;98200.16;5014728;28;20044;-83
2022/11/09 11:13:42;;;;;;;2.25;1.98;;;;;;;12.87;81.52;98198.81;5026455;28;20133;-82
2022/11/09 11:16:34;;;;;;;1.85;1.75;;;;;;;13.00;80.62;98195.50;5030037;28;20086;-83
2022/11/09 11:19:01;;;;;;;5.07;1.92;;;;;;;12.97;81.01;98196.91;5024490;28;20409;-82
2022/11/09 11:21:27;;;;;;;4.45;2.10;;;;;;;12.96;80.70;98183.75;5008623;28;20033;-82
2022/11/09 11:24:12;;;;;;;3.42;1.90;;;;;;;13.09;80.58;98205.38;5012517;28;20033;-82
2022/11/09 11:26:44;;;;;;;5.37;1.97;;;;;;;13.05;80.43;98201.69;5009785;28;20041;-83
2022/11/09 11:29:51;;;;;;;2.67;2.22;;;;;;;13.24;80.25;98205.25;5026792;28;20029;-82
2022/11/09 11:32:18;;;;;;;4.20;1.70;;;;;;;13.21;79.62;98192.44;5026435;28;20033;-82
2022/11/09 11:34:44;;;;;;;1.80;1.70;;;;;;;13.31;78.48;98186.97;5007244;28;20429;-83
2022/11/09 11:38:04;;;;;;;3.42;1.70;;;;;;;13.49;78.89;98202.38;5029934;28;20486;-83